sensor_id;sensor_type;location;lat;lon;timestamp;temperature;humidity
17415;DHT22;8825;48.086;16.426;2023-02-28T00:01:13;3.90;54.60
17415;DHT22;8825;48.086;16.426;2023-02-28T00:03:42;3.90;54.60
17415;DHT22;8825;48.086;16.426;2023-02-28T00:06:10;3.90;54.70
17415;DHT22;8825;48.086;16.426;2023-02-28T00:08:38;3.90;54.70
17415;DHT22;8825;48.086;16.426;2023-02-28T00:11:08;3.90;54.70
17415;DHT22;8825;48.086;16.426;2023-02-28T00:13:38;3.90;54.70
17415;DHT22;8825;48.086;16.426;2023-02-28T00:16:09;3.90;54.80
17415;DHT22;8825;48.086;16.426;2023-02-28T00:18:37;3.90;54.80
17415;DHT22;8825;48.086;16.426;2023-02-28T00:21:06;3.90;54.80
17415;DHT22;8825;48.086;16.426;2023-02-28T00:23:34;3.90;54.80
17415;DHT22;8825;48.086;16.426;2023-02-28T00:26:02;3.90;54.90
17415;DHT22;8825;48.086;16.426;2023-02-28T00:28:30;4.00;54.90
17415;DHT22;8825;48.086;16.426;2023-02-28T00:30:57;4.00;54.90
17415;DHT22;8825;48.086;16.426;2023-02-28T00:33:27;4.00;54.90
17415;DHT22;8825;48.086;16.426;2023-02-28T00:36:06;4.00;55.00
17415;DHT22;8825;48.086;16.426;2023-02-28T00:38:34;4.00;55.00
17415;DHT22;8825;48.086;16.426;2023-02-28T00:41:02;4.00;55.00
17415;DHT22;8825;48.086;16.426;2023-02-28T00:43:35;4.00;55.10
17415;DHT22;8825;48.086;16.426;2023-02-28T00:46:03;4.00;55.10
17415;DHT22;8825;48.086;16.426;2023-02-28T00:48:31;4.00;55.20
17415;DHT22;8825;48.086;16.426;2023-02-28T00:50:59;4.00;55.30
17415;DHT22;8825;48.086;16.426;2023-02-28T00:53:27;4.00;55.20
17415;DHT22;8825;48.086;16.426;2023-02-28T00:55:55;4.00;55.30
17415;DHT22;8825;48.086;16.426;2023-02-28T00:58:22;4.00;55.20
17415;DHT22;8825;48.086;16.426;2023-02-28T01:00:51;4.00;55.20
17415;DHT22;8825;48.086;16.426;2023-02-28T01:03:19;4.00;55.20
17415;DHT22;8825;48.086;16.426;2023-02-28T01:05:47;4.00;55.20
17415;DHT22;8825;48.086;16.426;2023-02-28T01:08:15;4.00;55.10
17415;DHT22;8825;48.086;16.426;2023-02-28T01:10:43;4.00;55.60
17415;DHT22;8825;48.086;16.426;2023-02-28T01:13:11;4.00;55.10
17415;DHT22;8825;48.086;16.426;2023-02-28T01:15:41;4.00;55.10
17415;DHT22;8825;48.086;16.426;2023-02-28T01:18:09;4.00;55.10
17415;DHT22;8825;48.086;16.426;2023-02-28T01:20:37;4.00;55.00
17415;DHT22;8825;48.086;16.426;2023-02-28T01:23:05;4.00;55.00
17415;DHT22;8825;48.086;16.426;2023-02-28T01:25:35;4.00;55.00
17415;DHT22;8825;48.086;16.426;2023-02-28T01:28:03;4.00;55.10
17415;DHT22;8825;48.086;16.426;2023-02-28T01:30:31;4.00;55.00
17415;DHT22;8825;48.086;16.426;2023-02-28T01:32:59;4.10;55.00
17415;DHT22;8825;48.086;16.426;2023-02-28T01:35:26;4.10;55.00
17415;DHT22;8825;48.086;16.426;2023-02-28T01:37:54;4.10;55.00
17415;DHT22;8825;48.086;16.426;2023-02-28T01:40:22;4.10;55.00
17415;DHT22;8825;48.086;16.426;2023-02-28T01:42:50;4.10;55.10
17415;DHT22;8825;48.086;16.426;2023-02-28T01:47:50;4.10;55.20
17415;DHT22;8825;48.086;16.426;2023-02-28T01:50:23;4.10;55.30
17415;DHT22;8825;48.086;16.426;2023-02-28T01:52:54;4.10;55.40
17415;DHT22;8825;48.086;16.426;2023-02-28T01:55:23;4.00;55.40
17415;DHT22;8825;48.086;16.426;2023-02-28T01:57:55;4.00;55.60
17415;DHT22;8825;48.086;16.426;2023-02-28T02:00:25;4.00;55.70
17415;DHT22;8825;48.086;16.426;2023-02-28T02:02:59;4.00;55.70
17415;DHT22;8825;48.086;16.426;2023-02-28T02:05:29;3.90;55.90
17415;DHT22;8825;48.086;16.426;2023-02-28T02:10:48;3.90;56.30
17415;DHT22;8825;48.086;16.426;2023-02-28T02:16:20;3.80;56.60
17415;DHT22;8825;48.086;16.426;2023-02-28T02:18:57;3.80;56.70
17415;DHT22;8825;48.086;16.426;2023-02-28T02:21:58;3.80;57.00
17415;DHT22;8825;48.086;16.426;2023-02-28T02:33:02;3.70;57.80
17415;DHT22;8825;48.086;16.426;2023-02-28T02:43:36;3.60;58.10
17415;DHT22;8825;48.086;16.426;2023-02-28T02:46:04;3.60;58.20
17415;DHT22;8825;48.086;16.426;2023-02-28T02:48:34;3.60;58.10
17415;DHT22;8825;48.086;16.426;2023-02-28T02:51:05;3.50;58.00
17415;DHT22;8825;48.086;16.426;2023-02-28T02:53:37;3.50;58.00
17415;DHT22;8825;48.086;16.426;2023-02-28T02:56:06;3.60;58.00
17415;DHT22;8825;48.086;16.426;2023-02-28T02:58:37;3.50;57.90
17415;DHT22;8825;48.086;16.426;2023-02-28T03:01:08;3.50;57.90
17415;DHT22;8825;48.086;16.426;2023-02-28T03:03:36;3.50;57.80
17415;DHT22;8825;48.086;16.426;2023-02-28T03:06:05;3.50;57.80
17415;DHT22;8825;48.086;16.426;2023-02-28T03:08:37;3.50;57.80
17415;DHT22;8825;48.086;16.426;2023-02-28T03:11:09;3.50;57.90
17415;DHT22;8825;48.086;16.426;2023-02-28T03:16:23;3.40;57.90
17415;DHT22;8825;48.086;16.426;2023-02-28T03:24:49;3.30;57.90
17415;DHT22;8825;48.086;16.426;2023-02-28T03:30:28;3.30;58.00
17415;DHT22;8825;48.086;16.426;2023-02-28T03:32:36;3.30;58.10
17415;DHT22;8825;48.086;16.426;2023-02-28T03:35:11;3.30;58.10
17415;DHT22;8825;48.086;16.426;2023-02-28T03:37:40;3.30;58.10
17415;DHT22;8825;48.086;16.426;2023-02-28T03:40:12;3.30;58.10
17415;DHT22;8825;48.086;16.426;2023-02-28T03:42:42;3.40;58.80
17415;DHT22;8825;48.086;16.426;2023-02-28T03:45:21;3.30;58.10
17415;DHT22;8825;48.086;16.426;2023-02-28T03:47:55;3.40;58.00
17415;DHT22;8825;48.086;16.426;2023-02-28T03:50:26;3.40;58.10
17415;DHT22;8825;48.086;16.426;2023-02-28T03:52:58;3.40;58.10
17415;DHT22;8825;48.086;16.426;2023-02-28T03:55:32;3.50;58.10
17415;DHT22;8825;48.086;16.426;2023-02-28T03:58:15;3.50;58.10
17415;DHT22;8825;48.086;16.426;2023-02-28T04:00:45;3.50;58.10
17415;DHT22;8825;48.086;16.426;2023-02-28T04:03:12;3.60;58.10
17415;DHT22;8825;48.086;16.426;2023-02-28T04:05:50;3.50;58.00
17415;DHT22;8825;48.086;16.426;2023-02-28T04:08:16;3.50;58.00
17415;DHT22;8825;48.086;16.426;2023-02-28T04:10:47;3.60;58.60
17415;DHT22;8825;48.086;16.426;2023-02-28T04:13:14;3.50;57.90
17415;DHT22;8825;48.086;16.426;2023-02-28T04:15:42;3.60;57.90
17415;DHT22;8825;48.086;16.426;2023-02-28T04:18:09;3.60;57.70
17415;DHT22;8825;48.086;16.426;2023-02-28T04:20:37;3.60;57.60
17415;DHT22;8825;48.086;16.426;2023-02-28T04:23:04;3.60;57.60
17415;DHT22;8825;48.086;16.426;2023-02-28T04:25:32;3.50;57.50
17415;DHT22;8825;48.086;16.426;2023-02-28T04:27:59;3.50;57.50
17415;DHT22;8825;48.086;16.426;2023-02-28T04:30:27;3.50;57.40
17415;DHT22;8825;48.086;16.426;2023-02-28T04:32:56;3.40;57.30
17415;DHT22;8825;48.086;16.426;2023-02-28T04:35:23;3.40;57.30
17415;DHT22;8825;48.086;16.426;2023-02-28T04:37:51;3.30;57.40
17415;DHT22;8825;48.086;16.426;2023-02-28T04:40:18;3.30;57.40
17415;DHT22;8825;48.086;16.426;2023-02-28T04:42:46;3.30;57.50
17415;DHT22;8825;48.086;16.426;2023-02-28T04:45:13;3.30;57.60
17415;DHT22;8825;48.086;16.426;2023-02-28T04:47:41;3.20;57.70
17415;DHT22;8825;48.086;16.426;2023-02-28T04:50:09;3.20;57.60
17415;DHT22;8825;48.086;16.426;2023-02-28T04:52:36;3.20;57.80
17415;DHT22;8825;48.086;16.426;2023-02-28T04:55:05;3.10;57.80
17415;DHT22;8825;48.086;16.426;2023-02-28T04:57:32;3.10;57.90
17415;DHT22;8825;48.086;16.426;2023-02-28T05:00:00;3.10;58.10
17415;DHT22;8825;48.086;16.426;2023-02-28T05:02:27;3.10;58.00
17415;DHT22;8825;48.086;16.426;2023-02-28T05:04:55;3.10;58.20
17415;DHT22;8825;48.086;16.426;2023-02-28T05:07:22;3.10;58.30
17415;DHT22;8825;48.086;16.426;2023-02-28T05:09:50;3.10;58.40
17415;DHT22;8825;48.086;16.426;2023-02-28T05:12:17;3.10;58.40
17415;DHT22;8825;48.086;16.426;2023-02-28T05:14:45;3.10;58.40
17415;DHT22;8825;48.086;16.426;2023-02-28T05:17:12;3.10;58.50
17415;DHT22;8825;48.086;16.426;2023-02-28T05:19:40;3.00;58.50
17415;DHT22;8825;48.086;16.426;2023-02-28T05:22:12;3.00;58.50
17415;DHT22;8825;48.086;16.426;2023-02-28T05:24:41;3.00;58.60
17415;DHT22;8825;48.086;16.426;2023-02-28T05:27:09;3.00;58.60
17415;DHT22;8825;48.086;16.426;2023-02-28T05:29:37;3.00;58.70
17415;DHT22;8825;48.086;16.426;2023-02-28T05:32:06;2.90;58.60
17415;DHT22;8825;48.086;16.426;2023-02-28T05:34:34;2.90;58.70
17415;DHT22;8825;48.086;16.426;2023-02-28T05:37:01;3.00;58.80
17415;DHT22;8825;48.086;16.426;2023-02-28T05:39:29;2.90;58.80
17415;DHT22;8825;48.086;16.426;2023-02-28T05:41:56;2.90;58.90
17415;DHT22;8825;48.086;16.426;2023-02-28T05:44:24;2.90;59.00
17415;DHT22;8825;48.086;16.426;2023-02-28T05:46:52;2.90;59.10
17415;DHT22;8825;48.086;16.426;2023-02-28T05:49:19;2.90;59.20
17415;DHT22;8825;48.086;16.426;2023-02-28T05:51:47;2.90;59.30
17415;DHT22;8825;48.086;16.426;2023-02-28T05:54:14;2.90;59.40
17415;DHT22;8825;48.086;16.426;2023-02-28T05:56:42;2.90;59.40
17415;DHT22;8825;48.086;16.426;2023-02-28T05:59:14;3.00;59.60
17415;DHT22;8825;48.086;16.426;2023-02-28T06:01:45;3.00;59.60
17415;DHT22;8825;48.086;16.426;2023-02-28T06:04:17;3.00;59.70
17415;DHT22;8825;48.086;16.426;2023-02-28T06:06:48;3.00;59.80
17415;DHT22;8825;48.086;16.426;2023-02-28T06:09:16;3.00;59.80
17415;DHT22;8825;48.086;16.426;2023-02-28T06:11:44;3.00;59.90
17415;DHT22;8825;48.086;16.426;2023-02-28T06:14:19;3.10;59.90
17415;DHT22;8825;48.086;16.426;2023-02-28T06:16:47;3.10;59.90
17415;DHT22;8825;48.086;16.426;2023-02-28T06:19:14;3.10;60.00
17415;DHT22;8825;48.086;16.426;2023-02-28T06:21:43;3.10;60.00
17415;DHT22;8825;48.086;16.426;2023-02-28T06:24:10;3.20;60.10
17415;DHT22;8825;48.086;16.426;2023-02-28T06:26:38;3.20;60.00
17415;DHT22;8825;48.086;16.426;2023-02-28T06:29:06;3.20;60.10
17415;DHT22;8825;48.086;16.426;2023-02-28T06:31:33;3.30;60.20
17415;DHT22;8825;48.086;16.426;2023-02-28T06:34:01;3.30;60.30
17415;DHT22;8825;48.086;16.426;2023-02-28T06:36:29;3.30;60.10
17415;DHT22;8825;48.086;16.426;2023-02-28T06:38:56;3.30;60.10
17415;DHT22;8825;48.086;16.426;2023-02-28T06:41:25;3.30;60.10
17415;DHT22;8825;48.086;16.426;2023-02-28T06:43:53;3.40;60.00
17415;DHT22;8825;48.086;16.426;2023-02-28T06:46:21;3.30;60.10
17415;DHT22;8825;48.086;16.426;2023-02-28T06:48:48;3.30;60.10
17415;DHT22;8825;48.086;16.426;2023-02-28T06:51:18;3.30;60.10
17415;DHT22;8825;48.086;16.426;2023-02-28T06:53:51;3.30;60.20
17415;DHT22;8825;48.086;16.426;2023-02-28T06:56:19;3.20;60.20
17415;DHT22;8825;48.086;16.426;2023-02-28T06:58:48;3.20;60.50
17415;DHT22;8825;48.086;16.426;2023-02-28T07:01:16;3.20;60.60
17415;DHT22;8825;48.086;16.426;2023-02-28T07:03:43;3.30;60.60
17415;DHT22;8825;48.086;16.426;2023-02-28T07:06:11;3.40;60.60
17415;DHT22;8825;48.086;16.426;2023-02-28T07:08:39;3.50;60.50
17415;DHT22;8825;48.086;16.426;2023-02-28T07:11:07;3.60;60.30
17415;DHT22;8825;48.086;16.426;2023-02-28T07:13:35;3.70;59.90
17415;DHT22;8825;48.086;16.426;2023-02-28T07:16:08;3.80;59.60
17415;DHT22;8825;48.086;16.426;2023-02-28T07:18:37;3.90;59.20
17415;DHT22;8825;48.086;16.426;2023-02-28T07:21:07;3.90;59.00
17415;DHT22;8825;48.086;16.426;2023-02-28T07:23:36;4.00;58.80
17415;DHT22;8825;48.086;16.426;2023-02-28T07:26:06;4.10;58.70
17415;DHT22;8825;48.086;16.426;2023-02-28T07:28:36;4.10;58.50
17415;DHT22;8825;48.086;16.426;2023-02-28T07:31:05;4.10;58.10
17415;DHT22;8825;48.086;16.426;2023-02-28T07:33:33;4.10;57.90
17415;DHT22;8825;48.086;16.426;2023-02-28T07:36:04;4.20;57.80
17415;DHT22;8825;48.086;16.426;2023-02-28T07:38:34;4.20;57.50
17415;DHT22;8825;48.086;16.426;2023-02-28T07:41:02;4.30;57.40
17415;DHT22;8825;48.086;16.426;2023-02-28T07:43:31;4.30;57.10
17415;DHT22;8825;48.086;16.426;2023-02-28T07:46:08;4.30;56.90
17415;DHT22;8825;48.086;16.426;2023-02-28T07:48:35;4.40;57.00
17415;DHT22;8825;48.086;16.426;2023-02-28T07:51:03;4.40;57.30
17415;DHT22;8825;48.086;16.426;2023-02-28T07:53:31;4.40;57.10
17415;DHT22;8825;48.086;16.426;2023-02-28T07:56:00;4.50;56.90
17415;DHT22;8825;48.086;16.426;2023-02-28T07:58:30;4.50;56.40
17415;DHT22;8825;48.086;16.426;2023-02-28T08:01:04;4.50;55.90
17415;DHT22;8825;48.086;16.426;2023-02-28T08:03:26;4.50;55.80
17415;DHT22;8825;48.086;16.426;2023-02-28T08:05:54;4.60;55.90
17415;DHT22;8825;48.086;16.426;2023-02-28T08:08:21;4.60;56.00
17415;DHT22;8825;48.086;16.426;2023-02-28T08:10:50;4.80;56.00
17415;DHT22;8825;48.086;16.426;2023-02-28T08:13:17;4.80;55.70
17415;DHT22;8825;48.086;16.426;2023-02-28T08:15:45;4.80;55.80
17415;DHT22;8825;48.086;16.426;2023-02-28T08:18:13;4.80;56.00
17415;DHT22;8825;48.086;16.426;2023-02-28T08:20:41;4.80;55.80
17415;DHT22;8825;48.086;16.426;2023-02-28T08:23:08;4.90;55.90
17415;DHT22;8825;48.086;16.426;2023-02-28T08:25:36;5.00;55.80
17415;DHT22;8825;48.086;16.426;2023-02-28T08:28:04;5.00;55.70
17415;DHT22;8825;48.086;16.426;2023-02-28T08:30:31;5.10;55.70
17415;DHT22;8825;48.086;16.426;2023-02-28T08:32:59;5.20;55.60
17415;DHT22;8825;48.086;16.426;2023-02-28T08:35:28;5.30;55.60
17415;DHT22;8825;48.086;16.426;2023-02-28T08:37:55;5.40;55.50
17415;DHT22;8825;48.086;16.426;2023-02-28T08:40:23;5.40;55.30
17415;DHT22;8825;48.086;16.426;2023-02-28T08:42:50;5.50;55.10
17415;DHT22;8825;48.086;16.426;2023-02-28T08:45:18;5.50;54.70
17415;DHT22;8825;48.086;16.426;2023-02-28T08:47:46;5.50;54.70
17415;DHT22;8825;48.086;16.426;2023-02-28T08:50:13;5.50;54.50
17415;DHT22;8825;48.086;16.426;2023-02-28T08:52:43;5.60;54.30
17415;DHT22;8825;48.086;16.426;2023-02-28T08:55:11;5.60;54.30
17415;DHT22;8825;48.086;16.426;2023-02-28T08:57:38;5.60;54.10
17415;DHT22;8825;48.086;16.426;2023-02-28T09:00:06;5.70;54.20
17415;DHT22;8825;48.086;16.426;2023-02-28T09:02:34;5.70;54.10
17415;DHT22;8825;48.086;16.426;2023-02-28T09:05:02;5.80;54.10
17415;DHT22;8825;48.086;16.426;2023-02-28T09:07:30;5.90;53.90
17415;DHT22;8825;48.086;16.426;2023-02-28T09:09:57;5.90;53.70
17415;DHT22;8825;48.086;16.426;2023-02-28T09:12:26;5.90;53.70
17415;DHT22;8825;48.086;16.426;2023-02-28T09:14:54;6.00;53.60
17415;DHT22;8825;48.086;16.426;2023-02-28T09:17:21;6.00;53.50
17415;DHT22;8825;48.086;16.426;2023-02-28T09:19:49;6.10;53.60
17415;DHT22;8825;48.086;16.426;2023-02-28T09:22:17;6.20;53.50
17415;DHT22;8825;48.086;16.426;2023-02-28T09:24:44;6.30;53.00
17415;DHT22;8825;48.086;16.426;2023-02-28T09:27:12;6.40;53.40
17415;DHT22;8825;48.086;16.426;2023-02-28T09:29:39;6.50;53.40
17415;DHT22;8825;48.086;16.426;2023-02-28T09:32:07;6.60;53.10
17415;DHT22;8825;48.086;16.426;2023-02-28T09:34:34;6.60;52.80
17415;DHT22;8825;48.086;16.426;2023-02-28T09:37:03;6.70;52.60
17415;DHT22;8825;48.086;16.426;2023-02-28T09:39:30;6.80;53.10
17415;DHT22;8825;48.086;16.426;2023-02-28T09:41:58;6.90;52.60
17415;DHT22;8825;48.086;16.426;2023-02-28T09:44:35;7.10;52.40
17415;DHT22;8825;48.086;16.426;2023-02-28T09:49:43;7.30;51.90
17415;DHT22;8825;48.086;16.426;2023-02-28T09:52:35;7.40;51.40
17415;DHT22;8825;48.086;16.426;2023-02-28T09:54:43;7.60;51.50
17415;DHT22;8825;48.086;16.426;2023-02-28T09:57:35;7.80;51.40
17415;DHT22;8825;48.086;16.426;2023-02-28T10:00:07;8.00;51.10
17415;DHT22;8825;48.086;16.426;2023-02-28T10:05:48;8.40;49.50
17415;DHT22;8825;48.086;16.426;2023-02-28T10:08:18;8.60;48.90
17415;DHT22;8825;48.086;16.426;2023-02-28T10:10:48;8.80;48.70
17415;DHT22;8825;48.086;16.426;2023-02-28T10:13:59;9.10;48.30
17415;DHT22;8825;48.086;16.426;2023-02-28T10:16:45;9.60;47.50
17415;DHT22;8825;48.086;16.426;2023-02-28T10:22:09;10.40;45.30
17415;DHT22;8825;48.086;16.426;2023-02-28T10:24:49;10.50;44.20
17415;DHT22;8825;48.086;16.426;2023-02-28T10:27:26;10.40;43.70
17415;DHT22;8825;48.086;16.426;2023-02-28T10:29:56;10.20;44.00
17415;DHT22;8825;48.086;16.426;2023-02-28T10:32:33;10.50;44.30
17415;DHT22;8825;48.086;16.426;2023-02-28T10:37:38;11.20;42.80
17415;DHT22;8825;48.086;16.426;2023-02-28T10:40:24;11.50;41.80
17415;DHT22;8825;48.086;16.426;2023-02-28T10:42:36;11.70;41.00
17415;DHT22;8825;48.086;16.426;2023-02-28T10:45:13;11.80;41.20
17415;DHT22;8825;48.086;16.426;2023-02-28T10:47:58;11.90;41.10
17415;DHT22;8825;48.086;16.426;2023-02-28T10:56:05;11.50;40.70
17415;DHT22;8825;48.086;16.426;2023-02-28T11:01:23;11.30;41.60
17415;DHT22;8825;48.086;16.426;2023-02-28T11:03:51;11.30;41.40
17415;DHT22;8825;48.086;16.426;2023-02-28T11:06:29;11.40;41.20
17415;DHT22;8825;48.086;16.426;2023-02-28T11:08:55;11.70;41.00
17415;DHT22;8825;48.086;16.426;2023-02-28T11:11:25;12.10;40.00
17415;DHT22;8825;48.086;16.426;2023-02-28T11:13:58;12.20;39.70
17415;DHT22;8825;48.086;16.426;2023-02-28T11:16:36;12.10;39.40
17415;DHT22;8825;48.086;16.426;2023-02-28T11:19:06;11.90;39.60
17415;DHT22;8825;48.086;16.426;2023-02-28T11:21:36;11.80;40.50
17415;DHT22;8825;48.086;16.426;2023-02-28T11:24:31;11.80;40.60
17415;DHT22;8825;48.086;16.426;2023-02-28T11:26:59;11.80;40.40
17415;DHT22;8825;48.086;16.426;2023-02-28T11:29:33;11.50;39.90
17415;DHT22;8825;48.086;16.426;2023-02-28T11:32:21;11.30;40.10
17415;DHT22;8825;48.086;16.426;2023-02-28T11:35:52;11.10;40.50
17415;DHT22;8825;48.086;16.426;2023-02-28T11:37:35;10.90;41.00
17415;DHT22;8825;48.086;16.426;2023-02-28T11:40:05;10.80;41.40
17415;DHT22;8825;48.086;16.426;2023-02-28T11:42:57;10.60;41.40
17415;DHT22;8825;48.086;16.426;2023-02-28T11:51:07;10.30;41.90
17415;DHT22;8825;48.086;16.426;2023-02-28T11:53:58;10.20;41.90
17415;DHT22;8825;48.086;16.426;2023-02-28T11:57:07;9.90;42.10
17415;DHT22;8825;48.086;16.426;2023-02-28T11:59:30;9.70;42.30
17415;DHT22;8825;48.086;16.426;2023-02-28T12:05:15;9.60;42.90
17415;DHT22;8825;48.086;16.426;2023-02-28T12:08:00;9.60;43.00
17415;DHT22;8825;48.086;16.426;2023-02-28T12:10:29;9.60;43.10
17415;DHT22;8825;48.086;16.426;2023-02-28T12:13:06;9.50;42.90
17415;DHT22;8825;48.086;16.426;2023-02-28T12:15:38;9.60;43.30
17415;DHT22;8825;48.086;16.426;2023-02-28T12:18:21;9.60;42.70
17415;DHT22;8825;48.086;16.426;2023-02-28T12:21:09;9.70;42.80
17415;DHT22;8825;48.086;16.426;2023-02-28T12:23:54;9.80;42.50
17415;DHT22;8825;48.086;16.426;2023-02-28T12:26:40;9.60;41.70
17415;DHT22;8825;48.086;16.426;2023-02-28T12:29:21;9.50;41.90
17415;DHT22;8825;48.086;16.426;2023-02-28T12:32:12;9.40;42.20
17415;DHT22;8825;48.086;16.426;2023-02-28T12:34:47;9.50;42.20
17415;DHT22;8825;48.086;16.426;2023-02-28T12:37:17;9.70;42.00
17415;DHT22;8825;48.086;16.426;2023-02-28T12:39:48;9.60;41.20
17415;DHT22;8825;48.086;16.426;2023-02-28T12:42:32;9.70;41.30
17415;DHT22;8825;48.086;16.426;2023-02-28T12:47:33;9.90;41.30
17415;DHT22;8825;48.086;16.426;2023-02-28T12:50:06;10.10;41.10
17415;DHT22;8825;48.086;16.426;2023-02-28T12:52:47;10.10;40.90
17415;DHT22;8825;48.086;16.426;2023-02-28T12:55:17;10.10;40.90
17415;DHT22;8825;48.086;16.426;2023-02-28T12:57:50;10.10;40.80
17415;DHT22;8825;48.086;16.426;2023-02-28T13:00:24;10.20;40.80
17415;DHT22;8825;48.086;16.426;2023-02-28T13:09:10;10.30;40.10
17415;DHT22;8825;48.086;16.426;2023-02-28T13:11:48;10.30;40.20
17415;DHT22;8825;48.086;16.426;2023-02-28T13:14:37;10.40;40.10
17415;DHT22;8825;48.086;16.426;2023-02-28T13:19:44;10.60;40.00
17415;DHT22;8825;48.086;16.426;2023-02-28T13:24:55;10.80;40.00
17415;DHT22;8825;48.086;16.426;2023-02-28T13:27:39;10.70;39.50
17415;DHT22;8825;48.086;16.426;2023-02-28T13:36:10;10.40;39.60
17415;DHT22;8825;48.086;16.426;2023-02-28T13:38:40;10.10;39.80
17415;DHT22;8825;48.086;16.426;2023-02-28T13:44:16;9.80;39.90
17415;DHT22;8825;48.086;16.426;2023-02-28T13:49:26;9.70;40.30
17415;DHT22;8825;48.086;16.426;2023-02-28T13:54:43;9.30;40.90
17415;DHT22;8825;48.086;16.426;2023-02-28T13:57:25;9.30;41.50
17415;DHT22;8825;48.086;16.426;2023-02-28T14:00:37;9.20;41.50
17415;DHT22;8825;48.086;16.426;2023-02-28T14:03:30;9.00;41.40
17415;DHT22;8825;48.086;16.426;2023-02-28T14:05:17;8.90;41.60
17415;DHT22;8825;48.086;16.426;2023-02-28T14:07:53;9.00;42.60
17415;DHT22;8825;48.086;16.426;2023-02-28T14:10:25;8.80;42.00
17415;DHT22;8825;48.086;16.426;2023-02-28T14:12:58;8.60;42.50
17415;DHT22;8825;48.086;16.426;2023-02-28T14:15:34;8.60;42.80
17415;DHT22;8825;48.086;16.426;2023-02-28T14:18:01;8.70;42.90
17415;DHT22;8825;48.086;16.426;2023-02-28T14:20:32;8.70;42.90
17415;DHT22;8825;48.086;16.426;2023-02-28T14:31:35;8.90;43.20
17415;DHT22;8825;48.086;16.426;2023-02-28T14:36:50;9.10;42.60
17415;DHT22;8825;48.086;16.426;2023-02-28T14:39:24;9.20;42.00
17415;DHT22;8825;48.086;16.426;2023-02-28T14:41:52;9.10;41.60
17415;DHT22;8825;48.086;16.426;2023-02-28T14:44:25;9.20;42.00
17415;DHT22;8825;48.086;16.426;2023-02-28T14:46:55;9.20;41.70
17415;DHT22;8825;48.086;16.426;2023-02-28T14:49:34;9.10;41.80
17415;DHT22;8825;48.086;16.426;2023-02-28T14:52:17;9.00;41.80
17415;DHT22;8825;48.086;16.426;2023-02-28T14:54:46;8.80;41.60
17415;DHT22;8825;48.086;16.426;2023-02-28T15:02:41;8.60;42.60
17415;DHT22;8825;48.086;16.426;2023-02-28T15:05:20;8.60;42.90
17415;DHT22;8825;48.086;16.426;2023-02-28T15:07:47;8.60;42.80
17415;DHT22;8825;48.086;16.426;2023-02-28T15:10:26;8.50;42.40
17415;DHT22;8825;48.086;16.426;2023-02-28T15:12:56;8.30;42.40
17415;DHT22;8825;48.086;16.426;2023-02-28T15:17:59;8.30;43.20
17415;DHT22;8825;48.086;16.426;2023-02-28T15:20:28;8.30;43.40
17415;DHT22;8825;48.086;16.426;2023-02-28T15:22:57;8.40;43.60
17415;DHT22;8825;48.086;16.426;2023-02-28T15:25:25;8.40;43.60
17415;DHT22;8825;48.086;16.426;2023-02-28T15:27:54;8.50;43.60
17415;DHT22;8825;48.086;16.426;2023-02-28T15:30:30;8.50;43.50
17415;DHT22;8825;48.086;16.426;2023-02-28T15:35:39;8.60;43.30
17415;DHT22;8825;48.086;16.426;2023-02-28T15:38:26;8.60;43.30
17415;DHT22;8825;48.086;16.426;2023-02-28T15:41:26;8.60;43.30
17415;DHT22;8825;48.086;16.426;2023-02-28T15:44:14;8.60;43.10
17415;DHT22;8825;48.086;16.426;2023-02-28T15:47:04;8.60;43.20
17415;DHT22;8825;48.086;16.426;2023-02-28T15:49:33;8.60;43.10
17415;DHT22;8825;48.086;16.426;2023-02-28T15:51:59;8.60;43.40
17415;DHT22;8825;48.086;16.426;2023-02-28T15:54:30;8.60;43.30
17415;DHT22;8825;48.086;16.426;2023-02-28T15:57:07;8.60;43.40
17415;DHT22;8825;48.086;16.426;2023-02-28T15:59:33;8.60;43.40
17415;DHT22;8825;48.086;16.426;2023-02-28T16:02:21;8.60;43.50
17415;DHT22;8825;48.086;16.426;2023-02-28T16:07:32;8.50;43.70
17415;DHT22;8825;48.086;16.426;2023-02-28T16:10:00;8.50;43.70
17415;DHT22;8825;48.086;16.426;2023-02-28T16:12:32;8.50;43.70
17415;DHT22;8825;48.086;16.426;2023-02-28T16:15:02;8.50;43.80
17415;DHT22;8825;48.086;16.426;2023-02-28T16:17:31;8.50;43.70
17415;DHT22;8825;48.086;16.426;2023-02-28T16:20:00;8.40;43.90
17415;DHT22;8825;48.086;16.426;2023-02-28T16:22:27;8.40;44.00
17415;DHT22;8825;48.086;16.426;2023-02-28T16:24:55;8.40;44.20
17415;DHT22;8825;48.086;16.426;2023-02-28T16:29:59;8.30;44.60
17415;DHT22;8825;48.086;16.426;2023-02-28T16:32:27;8.30;44.80
17415;DHT22;8825;48.086;16.426;2023-02-28T16:34:55;8.30;44.90
17415;DHT22;8825;48.086;16.426;2023-02-28T16:37:23;8.30;45.20
17415;DHT22;8825;48.086;16.426;2023-02-28T16:39:50;8.30;45.30
17415;DHT22;8825;48.086;16.426;2023-02-28T16:42:27;8.20;45.50
17415;DHT22;8825;48.086;16.426;2023-02-28T16:44:55;8.20;45.70
17415;DHT22;8825;48.086;16.426;2023-02-28T16:47:24;8.10;46.00
17415;DHT22;8825;48.086;16.426;2023-02-28T16:49:53;8.10;46.10
17415;DHT22;8825;48.086;16.426;2023-02-28T16:52:20;8.00;46.20
17415;DHT22;8825;48.086;16.426;2023-02-28T16:54:48;8.00;46.50
17415;DHT22;8825;48.086;16.426;2023-02-28T16:57:22;7.90;46.70
17415;DHT22;8825;48.086;16.426;2023-02-28T16:59:46;7.90;46.80
17415;DHT22;8825;48.086;16.426;2023-02-28T17:02:15;7.90;47.10
17415;DHT22;8825;48.086;16.426;2023-02-28T17:04:45;7.90;47.20
17415;DHT22;8825;48.086;16.426;2023-02-28T17:07:15;7.80;47.30
17415;DHT22;8825;48.086;16.426;2023-02-28T17:09:43;7.70;47.30
17415;DHT22;8825;48.086;16.426;2023-02-28T17:12:11;7.70;47.40
17415;DHT22;8825;48.086;16.426;2023-02-28T17:14:39;7.60;47.40
17415;DHT22;8825;48.086;16.426;2023-02-28T17:17:07;7.50;47.60
17415;DHT22;8825;48.086;16.426;2023-02-28T17:19:34;7.50;47.80
17415;DHT22;8825;48.086;16.426;2023-02-28T17:22:04;7.40;47.70
17415;DHT22;8825;48.086;16.426;2023-02-28T17:24:31;7.30;47.90
17415;DHT22;8825;48.086;16.426;2023-02-28T17:26:59;7.20;48.00
17415;DHT22;8825;48.086;16.426;2023-02-28T17:29:27;7.20;48.20
17415;DHT22;8825;48.086;16.426;2023-02-28T17:31:55;7.20;48.30
17415;DHT22;8825;48.086;16.426;2023-02-28T17:34:22;7.10;48.40
17415;DHT22;8825;48.086;16.426;2023-02-28T17:36:51;7.00;48.40
17415;DHT22;8825;48.086;16.426;2023-02-28T17:39:19;6.90;48.60
17415;DHT22;8825;48.086;16.426;2023-02-28T17:41:54;6.80;48.70
17415;DHT22;8825;48.086;16.426;2023-02-28T17:44:18;6.80;48.70
17415;DHT22;8825;48.086;16.426;2023-02-28T17:46:47;6.70;48.80
17415;DHT22;8825;48.086;16.426;2023-02-28T17:49:18;6.60;48.90
17415;DHT22;8825;48.086;16.426;2023-02-28T17:51:45;6.60;49.00
17415;DHT22;8825;48.086;16.426;2023-02-28T17:54:13;6.50;49.10
17415;DHT22;8825;48.086;16.426;2023-02-28T17:56:42;6.40;49.20
17415;DHT22;8825;48.086;16.426;2023-02-28T17:59:10;6.40;49.40
17415;DHT22;8825;48.086;16.426;2023-02-28T18:01:39;6.30;49.60
17415;DHT22;8825;48.086;16.426;2023-02-28T18:04:06;6.20;49.60
17415;DHT22;8825;48.086;16.426;2023-02-28T18:09:10;6.10;49.70
17415;DHT22;8825;48.086;16.426;2023-02-28T18:11:37;6.00;49.80